createdAt,value
2022-08-22T00:01:44.430Z,21.41
2022-08-22T00:02:53.053Z,23.91
2022-08-22T00:03:06.551Z,21.83
2022-08-22T00:06:58.453Z,21.43
2022-08-22T00:12:18.162Z,21.47
2022-08-22T00:17:49.962Z,21.48
2022-08-22T00:23:11.591Z,21.33
2022-08-22T00:28:21.509Z,21.43
2022-08-22T00:33:47.758Z,21.39
2022-08-22T00:39:11.820Z,21.53
2022-08-22T00:44:51.885Z,21.62
2022-08-22T00:50:17.216Z,21.44
2022-08-22T00:55:46.279Z,21.59
2022-08-22T01:00:56.105Z,21.46
2022-08-22T01:06:31.987Z,21.55
2022-08-22T01:12:11.953Z,21.54
2022-08-22T01:17:26.017Z,21.33
2022-08-22T01:23:05.211Z,21.52
2022-08-22T01:28:26.776Z,21.27
2022-08-22T01:33:48.118Z,21.78
2022-08-22T01:39:25.853Z,21.49
2022-08-22T01:44:30.512Z,21.13
2022-08-22T01:49:39.807Z,21.06
2022-08-22T01:55:13.772Z,21.01
2022-08-22T02:00:19.787Z,20.87
2022-08-22T02:05:53.490Z,21.08
2022-08-22T02:11:10.818Z,21.12
2022-08-22T02:16:22.713Z,21.08
2022-08-22T02:21:47.062Z,21.57
2022-08-22T02:27:24.013Z,21.23
2022-08-22T02:32:41.026Z,21.12
2022-08-22T02:37:48.898Z,20.85
2022-08-22T02:43:09.197Z,21.02
2022-08-22T02:48:20.384Z,20.82
2022-08-22T02:53:34.535Z,20.81
2022-08-22T02:58:51.659Z,20.90
2022-08-22T03:04:21.562Z,21.06
2022-08-22T03:09:30.104Z,20.90
2022-08-22T03:14:51.397Z,20.78
2022-08-22T03:20:25.617Z,20.82
2022-08-22T03:26:02.088Z,21.01
2022-08-22T03:31:19.211Z,20.89
2022-08-22T03:36:28.472Z,20.83
2022-08-22T03:41:49.585Z,20.73
2022-08-22T03:47:07.664Z,21.01
2022-08-22T03:52:12.617Z,20.81
2022-08-22T03:57:44.308Z,21.04
2022-08-22T04:02:58.663Z,21.06
2022-08-22T04:08:33.597Z,21.10
2022-08-22T04:13:48.771Z,21.21
2022-08-22T04:19:09.247Z,21.15
2022-08-22T04:24:30.178Z,21.30
2022-08-22T04:29:55.358Z,21.74
2022-08-22T04:35:11.887Z,21.85
2022-08-22T04:40:34.167Z,21.93
2022-08-22T04:45:45.559Z,22.32
2022-08-22T04:50:51.571Z,22.63
2022-08-22T04:56:07.641Z,23.10
2022-08-22T05:01:21.057Z,23.63
2022-08-22T05:06:27.466Z,23.77
2022-08-22T05:11:33.395Z,23.85
2022-08-22T05:16:42.710Z,24.01
2022-08-22T05:21:48.155Z,24.02
2022-08-22T05:26:55.930Z,24.26
2022-08-22T05:32:02.627Z,24.70
2022-08-22T05:37:04.841Z,24.91
2022-08-22T05:42:16.097Z,25.52
2022-08-22T05:47:22.212Z,26.27
2022-08-22T05:52:41.074Z,26.31
2022-08-22T05:57:50.468Z,25.94
2022-08-22T06:03:22.573Z,25.94
2022-08-22T06:08:31.858Z,25.68
2022-08-22T06:13:47.403Z,26.23
2022-08-22T06:18:52.480Z,26.33
2022-08-22T06:24:00.088Z,26.65
2022-08-22T06:29:03.118Z,26.68
2022-08-22T06:34:10.951Z,27.30
2022-08-22T06:39:18.974Z,27.74
2022-08-22T06:44:27.629Z,28.83
2022-08-22T06:49:32.738Z,29.50
2022-08-22T06:54:39.015Z,29.73
2022-08-22T06:59:44.028Z,29.70
2022-08-22T07:04:49.296Z,29.03
2022-08-22T07:09:55.546Z,27.70
2022-08-22T07:15:37.327Z,27.71
2022-08-22T07:20:46.712Z,28.17
2022-08-22T07:26:22.411Z,29.98
2022-08-22T07:31:51.287Z,31.45
2022-08-22T07:37:05.789Z,32.31
2022-08-22T07:42:17.045Z,32.18
2022-08-22T07:47:26.353Z,32.53
2022-08-22T07:52:37.267Z,33.62
2022-08-22T07:57:47.561Z,34.21
2022-08-22T08:02:53.363Z,34.09
2022-08-22T08:07:56.605Z,34.04
2022-08-22T08:13:03.776Z,34.63
2022-08-22T08:18:11.835Z,35.19
2022-08-22T08:23:23.400Z,36.01
2022-08-22T08:28:36.125Z,36.94
2022-08-22T08:33:41.376Z,37.87
2022-08-22T08:38:54.131Z,38.38
2022-08-22T08:44:07.763Z,38.17
2022-08-22T08:49:24.162Z,37.25
2022-08-22T08:54:45.107Z,36.56
2022-08-22T08:59:52.247Z,36.06
2022-08-22T09:05:26.536Z,36.88
2022-08-22T09:10:53.633Z,38.45
2022-08-22T09:16:10.611Z,38.40
2022-08-22T09:21:42.480Z,37.86
2022-08-22T09:27:02.104Z,37.14
2022-08-22T09:32:29.631Z,37.29
2022-08-22T09:38:09.197Z,38.83
2022-08-22T09:43:21.137Z,39.00
2022-08-22T09:48:53.845Z,38.71
2022-08-22T09:54:08.612Z,37.57
2022-08-22T09:59:14.788Z,37.79
2022-08-22T10:04:25.887Z,39.01
2022-08-22T10:10:07.082Z,39.42
2022-08-22T10:15:23.388Z,40.58
2022-08-22T10:20:34.842Z,40.42
2022-08-22T10:25:42.345Z,39.65
2022-08-22T10:31:01.002Z,40.97
2022-08-22T10:36:11.999Z,39.48
2022-08-22T10:41:26.461Z,39.59
2022-08-22T10:46:42.220Z,39.80
2022-08-22T10:52:17.277Z,40.50
2022-08-22T10:58:01.099Z,40.34
2022-08-22T11:03:23.194Z,40.13
2022-08-22T11:08:35.392Z,40.53
2022-08-22T11:14:06.945Z,40.50
2022-08-22T11:19:16.707Z,40.61
2022-08-22T11:24:35.764Z,41.61
2022-08-22T11:30:07.004Z,42.18
2022-08-22T11:35:26.020Z,42.38
2022-08-22T11:40:55.790Z,42.02
2022-08-22T11:46:01.908Z,41.25
2022-08-22T11:51:13.609Z,40.46
2022-08-22T11:56:33.067Z,40.16
2022-08-22T12:01:47.940Z,39.82
2022-08-22T12:07:01.458Z,39.16
2022-08-22T12:12:12.781Z,38.42
2022-08-22T12:17:50.674Z,38.23
2022-08-22T12:23:05.299Z,38.62
2022-08-22T12:28:23.041Z,38.30
2022-08-22T12:33:44.810Z,38.49
2022-08-22T12:39:07.714Z,37.54
2022-08-22T12:44:18.991Z,35.93
2022-08-22T12:49:21.075Z,34.63
2022-08-22T12:54:36.270Z,33.97
2022-08-22T12:59:45.843Z,33.40
2022-08-22T13:04:55.839Z,33.11
2022-08-22T13:10:22.925Z,33.03
2022-08-22T13:15:28.318Z,32.85
2022-08-22T13:20:45.132Z,32.54
2022-08-22T13:26:03.558Z,32.55
2022-08-22T13:31:21.230Z,32.42
2022-08-22T13:36:24.230Z,32.10
2022-08-22T13:41:33.172Z,32.24
2022-08-22T13:46:44.509Z,32.15
2022-08-22T13:51:59.465Z,32.13
2022-08-22T13:57:05.560Z,32.06
2022-08-22T14:02:18.630Z,32.14
2022-08-22T14:07:38.048Z,32.11
2022-08-22T14:12:50.131Z,31.85
2022-08-22T14:18:00.800Z,31.79
2022-08-22T14:23:27.051Z,31.84
2022-08-22T14:28:33.476Z,31.50
2022-08-22T14:33:46.694Z,31.47
2022-08-22T14:39:06.403Z,31.59
2022-08-22T14:44:18.096Z,31.47
2022-08-22T14:49:20.915Z,31.25
2022-08-22T14:54:29.759Z,31.14
2022-08-22T14:59:38.896Z,31.11
2022-08-22T15:04:44.710Z,30.91
2022-08-22T15:09:56.821Z,30.87
2022-08-22T15:15:01.936Z,30.66
2022-08-22T15:20:38.263Z,30.83
2022-08-22T15:26:00.839Z,30.66
2022-08-22T15:31:17.299Z,30.56
2022-08-22T15:36:25.761Z,30.37
2022-08-22T15:41:36.654Z,30.26
2022-08-22T15:46:39.077Z,30.72
2022-08-22T15:51:50.289Z,30.15
2022-08-22T15:56:52.865Z,29.85
2022-08-22T16:02:04.860Z,29.88
2022-08-22T16:08:02.842Z,29.95
2022-08-22T16:13:10.681Z,29.62
2022-08-22T16:18:37.160Z,29.65
2022-08-22T16:23:53.989Z,29.50
2022-08-22T16:29:14.822Z,29.34
2022-08-22T16:34:33.588Z,29.13
2022-08-22T16:39:51.420Z,29.06
2022-08-22T16:45:02.609Z,28.91
2022-08-22T16:50:22.502Z,28.72
2022-08-22T16:55:30.823Z,28.67
2022-08-22T17:01:26.901Z,28.71
2022-08-22T17:06:49.979Z,28.36
2022-08-22T17:12:23.820Z,28.52
2022-08-22T17:17:47.177Z,28.30
2022-08-22T17:22:49.338Z,28.15
2022-08-22T17:28:34.294Z,28.28
2022-08-22T17:34:08.375Z,28.21
2022-08-22T17:39:38.005Z,28.17
2022-08-22T17:45:04.516Z,28.02
2022-08-22T17:50:18.728Z,27.94
2022-08-22T17:55:31.368Z,27.88
2022-08-22T18:00:48.973Z,27.87
2022-08-22T18:06:31.407Z,27.76
2022-08-22T18:12:15.826Z,27.69
2022-08-22T18:17:31.793Z,27.70
2022-08-22T18:22:46.388Z,27.65
2022-08-22T18:28:26.774Z,27.62
2022-08-22T18:33:48.700Z,27.54
2022-08-22T18:39:07.650Z,27.56
2022-08-22T18:44:20.831Z,27.51
2022-08-22T18:49:23.032Z,27.31
2022-08-22T18:54:47.594Z,27.45
2022-08-22T19:00:01.856Z,27.41
2022-08-22T19:05:27.558Z,27.34
2022-08-22T19:10:48.100Z,27.29
2022-08-22T19:16:08.173Z,27.21
2022-08-22T19:21:41.193Z,27.00
2022-08-22T19:26:48.230Z,26.84
2022-08-22T19:31:56.379Z,26.85
2022-08-22T19:37:33.224Z,26.92
2022-08-22T19:42:38.978Z,26.61
2022-08-22T19:47:42.905Z,26.55
2022-08-22T19:52:56.987Z,26.57
2022-08-22T19:58:31.926Z,26.56
2022-08-22T20:03:53.790Z,26.35
2022-08-22T20:09:33.965Z,26.56
2022-08-22T20:14:44.589Z,26.29
2022-08-22T20:25:42.357Z,26.23
2022-08-22T20:30:50.170Z,25.99
2022-08-22T20:35:56.053Z,25.91
2022-08-22T20:41:21.092Z,26.00
2022-08-22T20:46:38.611Z,25.71
2022-08-22T20:51:58.276Z,25.84
2022-08-22T20:57:17.738Z,25.82
2022-08-22T21:02:35.330Z,25.78
2022-08-22T21:07:43.864Z,25.69
2022-08-22T21:13:21.908Z,25.73
2022-08-22T21:18:36.729Z,25.70
2022-08-22T21:23:43.550Z,25.56
2022-08-22T21:28:57.818Z,25.59
2022-08-22T21:34:01.173Z,25.35
2022-08-22T21:39:17.552Z,25.49
2022-08-22T21:44:30.904Z,25.40
2022-08-22T21:49:33.063Z,25.19
2022-08-22T21:54:40.246Z,25.20
2022-08-22T21:59:51.668Z,25.06
2022-08-22T22:05:03.883Z,24.96
2022-08-22T22:10:12.233Z,24.95
2022-08-22T22:15:18.053Z,24.92
2022-08-22T22:20:23.565Z,24.88
2022-08-22T22:25:40.345Z,24.80
2022-08-22T22:30:45.765Z,24.77
2022-08-22T22:35:49.170Z,24.68
2022-08-22T22:40:52.667Z,24.76
2022-08-22T22:45:54.850Z,24.72
2022-08-22T22:50:58.777Z,24.72
2022-08-22T22:56:01.090Z,24.72
2022-08-22T23:01:17.099Z,24.79
2022-08-22T23:06:22.694Z,24.63
2022-08-22T23:11:29.890Z,24.76
2022-08-22T23:16:37.008Z,24.63
2022-08-22T23:21:39.891Z,24.56
2022-08-22T23:26:42.662Z,24.58
2022-08-22T23:31:57.882Z,24.68
2022-08-22T23:37:01.847Z,24.51
2022-08-22T23:42:04.653Z,24.44
2022-08-22T23:47:08.281Z,24.36
2022-08-22T23:52:12.376Z,24.31
2022-08-22T23:57:14.529Z,24.22
